sensor_id;sensor_type;location;lat;lon;timestamp;P1;durP1;ratioP1;P2;durP2;ratioP2
10872;SDS011;34586;53.616;10.032;2023-04-15T00:01:05;5.83;;;5.33;;
10872;SDS011;34586;53.616;10.032;2023-04-15T00:03:30;5.73;;;5.33;;
10872;SDS011;34586;53.616;10.032;2023-04-15T00:05:58;5.47;;;4.97;;
10872;SDS011;34586;53.616;10.032;2023-04-15T00:08:24;5.37;;;4.90;;
10872;SDS011;34586;53.616;10.032;2023-04-15T00:10:49;5.90;;;5.30;;
10872;SDS011;34586;53.616;10.032;2023-04-15T00:13:15;5.70;;;5.20;;
10872;SDS011;34586;53.616;10.032;2023-04-15T00:15:41;5.73;;;5.20;;
10872;SDS011;34586;53.616;10.032;2023-04-15T00:18:07;5.40;;;4.90;;
10872;SDS011;34586;53.616;10.032;2023-04-15T00:20:33;5.23;;;4.80;;
10872;SDS011;34586;53.616;10.032;2023-04-15T00:22:59;5.80;;;5.30;;
10872;SDS011;34586;53.616;10.032;2023-04-15T00:25:26;4.77;;;4.37;;
10872;SDS011;34586;53.616;10.032;2023-04-15T00:27:52;5.03;;;4.60;;
10872;SDS011;34586;53.616;10.032;2023-04-15T00:30:18;6.43;;;4.77;;
10872;SDS011;34586;53.616;10.032;2023-04-15T00:32:44;4.93;;;4.43;;
10872;SDS011;34586;53.616;10.032;2023-04-15T00:35:10;4.53;;;4.13;;
10872;SDS011;34586;53.616;10.032;2023-04-15T00:37:36;4.60;;;4.20;;
10872;SDS011;34586;53.616;10.032;2023-04-15T00:40:02;4.80;;;4.33;;
10872;SDS011;34586;53.616;10.032;2023-04-15T00:42:30;4.80;;;4.40;;
10872;SDS011;34586;53.616;10.032;2023-04-15T00:44:56;9.10;;;4.33;;
10872;SDS011;34586;53.616;10.032;2023-04-15T00:47:21;4.77;;;4.37;;
10872;SDS011;34586;53.616;10.032;2023-04-15T00:49:47;4.77;;;4.37;;
10872;SDS011;34586;53.616;10.032;2023-04-15T00:52:13;5.10;;;4.60;;
10872;SDS011;34586;53.616;10.032;2023-04-15T00:54:38;4.60;;;4.20;;
10872;SDS011;34586;53.616;10.032;2023-04-15T00:57:05;4.83;;;4.37;;
10872;SDS011;34586;53.616;10.032;2023-04-15T00:59:31;5.33;;;4.83;;
10872;SDS011;34586;53.616;10.032;2023-04-15T01:01:57;4.90;;;4.43;;
10872;SDS011;34586;53.616;10.032;2023-04-15T01:04:23;5.60;;;4.50;;
10872;SDS011;34586;53.616;10.032;2023-04-15T01:06:49;5.47;;;4.97;;
10872;SDS011;34586;53.616;10.032;2023-04-15T01:09:16;5.10;;;4.70;;
10872;SDS011;34586;53.616;10.032;2023-04-15T01:11:42;5.17;;;4.77;;
10872;SDS011;34586;53.616;10.032;2023-04-15T01:14:08;5.47;;;4.97;;
10872;SDS011;34586;53.616;10.032;2023-04-15T01:16:35;4.87;;;4.47;;
10872;SDS011;34586;53.616;10.032;2023-04-15T01:19:04;7.20;;;4.83;;
10872;SDS011;34586;53.616;10.032;2023-04-15T01:21:34;5.83;;;5.33;;
10872;SDS011;34586;53.616;10.032;2023-04-15T01:24:03;6.00;;;5.43;;
10872;SDS011;34586;53.616;10.032;2023-04-15T01:26:35;5.77;;;5.23;;
10872;SDS011;34586;53.616;10.032;2023-04-15T01:29:02;5.70;;;5.20;;
10872;SDS011;34586;53.616;10.032;2023-04-15T01:31:28;6.50;;;5.93;;
10872;SDS011;34586;53.616;10.032;2023-04-15T01:33:53;6.07;;;5.20;;
10872;SDS011;34586;53.616;10.032;2023-04-15T01:36:19;6.00;;;5.50;;
10872;SDS011;34586;53.616;10.032;2023-04-15T01:38:44;5.87;;;5.37;;
10872;SDS011;34586;53.616;10.032;2023-04-15T01:41:12;6.30;;;5.70;;
10872;SDS011;34586;53.616;10.032;2023-04-15T01:43:38;6.90;;;6.30;;
10872;SDS011;34586;53.616;10.032;2023-04-15T01:46:04;6.13;;;5.63;;
10872;SDS011;34586;53.616;10.032;2023-04-15T01:48:30;6.93;;;6.23;;
10872;SDS011;34586;53.616;10.032;2023-04-15T01:50:56;7.13;;;6.53;;
10872;SDS011;34586;53.616;10.032;2023-04-15T01:53:24;7.03;;;6.43;;
10872;SDS011;34586;53.616;10.032;2023-04-15T01:55:50;8.37;;;6.73;;
10872;SDS011;34586;53.616;10.032;2023-04-15T01:58:16;7.00;;;6.40;;
10872;SDS011;34586;53.616;10.032;2023-04-15T02:00:43;7.60;;;6.93;;
10872;SDS011;34586;53.616;10.032;2023-04-15T02:03:09;7.30;;;6.60;;
10872;SDS011;34586;53.616;10.032;2023-04-15T02:05:35;7.70;;;6.97;;
10872;SDS011;34586;53.616;10.032;2023-04-15T02:08:00;7.27;;;6.57;;
10872;SDS011;34586;53.616;10.032;2023-04-15T02:10:26;8.60;;;7.70;;
10872;SDS011;34586;53.616;10.032;2023-04-15T02:12:52;8.07;;;7.33;;
10872;SDS011;34586;53.616;10.032;2023-04-15T02:15:18;8.33;;;7.53;;
10872;SDS011;34586;53.616;10.032;2023-04-15T02:17:44;8.83;;;7.93;;
10872;SDS011;34586;53.616;10.032;2023-04-15T02:20:14;8.67;;;7.93;;
10872;SDS011;34586;53.616;10.032;2023-04-15T02:22:41;8.13;;;7.33;;
10872;SDS011;34586;53.616;10.032;2023-04-15T02:25:06;8.87;;;8.07;;
10872;SDS011;34586;53.616;10.032;2023-04-15T02:27:33;9.10;;;8.30;;
10872;SDS011;34586;53.616;10.032;2023-04-15T02:29:59;9.53;;;8.63;;
10872;SDS011;34586;53.616;10.032;2023-04-15T02:32:25;9.40;;;8.47;;
10872;SDS011;34586;53.616;10.032;2023-04-15T02:34:51;9.37;;;8.47;;
10872;SDS011;34586;53.616;10.032;2023-04-15T02:37:17;10.43;;;9.07;;
10872;SDS011;34586;53.616;10.032;2023-04-15T02:39:44;10.33;;;9.30;;
10872;SDS011;34586;53.616;10.032;2023-04-15T02:42:10;10.30;;;9.30;;
10872;SDS011;34586;53.616;10.032;2023-04-15T02:44:36;11.33;;;10.23;;
10872;SDS011;34586;53.616;10.032;2023-04-15T02:47:01;11.20;;;10.03;;
10872;SDS011;34586;53.616;10.032;2023-04-15T02:49:28;11.53;;;10.33;;
10872;SDS011;34586;53.616;10.032;2023-04-15T02:51:55;11.53;;;10.33;;
10872;SDS011;34586;53.616;10.032;2023-04-15T02:54:22;12.30;;;11.00;;
10872;SDS011;34586;53.616;10.032;2023-04-15T02:56:48;13.70;;;12.30;;
10872;SDS011;34586;53.616;10.032;2023-04-15T02:59:14;14.10;;;12.10;;
10872;SDS011;34586;53.616;10.032;2023-04-15T03:01:40;13.13;;;11.73;;
10872;SDS011;34586;53.616;10.032;2023-04-15T03:04:06;14.33;;;12.40;;
10872;SDS011;34586;53.616;10.032;2023-04-15T03:06:33;14.17;;;12.70;;
10872;SDS011;34586;53.616;10.032;2023-04-15T03:08:59;14.77;;;12.27;;
10872;SDS011;34586;53.616;10.032;2023-04-15T03:11:26;15.80;;;13.00;;
10872;SDS011;34586;53.616;10.032;2023-04-15T03:13:52;15.33;;;12.73;;
10872;SDS011;34586;53.616;10.032;2023-04-15T03:16:18;15.53;;;13.17;;
10872;SDS011;34586;53.616;10.032;2023-04-15T03:18:43;12.90;;;11.57;;
10872;SDS011;34586;53.616;10.032;2023-04-15T03:21:09;15.33;;;12.17;;
10872;SDS011;34586;53.616;10.032;2023-04-15T03:23:35;15.77;;;13.00;;
10872;SDS011;34586;53.616;10.032;2023-04-15T03:26:01;15.27;;;12.83;;
10872;SDS011;34586;53.616;10.032;2023-04-15T03:28:27;15.90;;;12.90;;
10872;SDS011;34586;53.616;10.032;2023-04-15T03:30:53;15.50;;;12.43;;
10872;SDS011;34586;53.616;10.032;2023-04-15T03:33:19;15.50;;;12.87;;
10872;SDS011;34586;53.616;10.032;2023-04-15T03:35:45;16.93;;;13.10;;
10872;SDS011;34586;53.616;10.032;2023-04-15T03:38:10;15.50;;;13.20;;
10872;SDS011;34586;53.616;10.032;2023-04-15T03:40:37;16.47;;;13.83;;
10872;SDS011;34586;53.616;10.032;2023-04-15T03:43:05;19.03;;;14.17;;
10872;SDS011;34586;53.616;10.032;2023-04-15T03:45:31;16.23;;;13.70;;
10872;SDS011;34586;53.616;10.032;2023-04-15T03:47:56;19.40;;;15.23;;
10872;SDS011;34586;53.616;10.032;2023-04-15T03:50:22;20.27;;;15.30;;
10872;SDS011;34586;53.616;10.032;2023-04-15T03:52:48;19.87;;;15.40;;
10872;SDS011;34586;53.616;10.032;2023-04-15T03:55:13;19.73;;;15.10;;
10872;SDS011;34586;53.616;10.032;2023-04-15T03:57:39;20.03;;;15.50;;
10872;SDS011;34586;53.616;10.032;2023-04-15T04:00:05;19.63;;;15.43;;
10872;SDS011;34586;53.616;10.032;2023-04-15T04:02:33;20.03;;;15.73;;
10872;SDS011;34586;53.616;10.032;2023-04-15T04:04:59;19.60;;;15.20;;
10872;SDS011;34586;53.616;10.032;2023-04-15T04:07:24;18.00;;;15.13;;
10872;SDS011;34586;53.616;10.032;2023-04-15T04:09:50;18.23;;;14.53;;
10872;SDS011;34586;53.616;10.032;2023-04-15T04:12:16;19.53;;;15.77;;
10872;SDS011;34586;53.616;10.032;2023-04-15T04:14:41;21.33;;;15.80;;
10872;SDS011;34586;53.616;10.032;2023-04-15T04:17:07;20.40;;;15.77;;
10872;SDS011;34586;53.616;10.032;2023-04-15T04:19:33;19.73;;;16.77;;
10872;SDS011;34586;53.616;10.032;2023-04-15T04:21:59;18.90;;;16.07;;
10872;SDS011;34586;53.616;10.032;2023-04-15T04:24:25;19.83;;;15.43;;
10872;SDS011;34586;53.616;10.032;2023-04-15T04:26:51;20.40;;;16.17;;
10872;SDS011;34586;53.616;10.032;2023-04-15T04:29:16;20.13;;;16.30;;
10872;SDS011;34586;53.616;10.032;2023-04-15T04:31:42;21.27;;;15.83;;
10872;SDS011;34586;53.616;10.032;2023-04-15T04:34:07;22.97;;;17.67;;
10872;SDS011;34586;53.616;10.032;2023-04-15T04:36:33;22.40;;;17.73;;
10872;SDS011;34586;53.616;10.032;2023-04-15T04:38:58;28.07;;;19.80;;
10872;SDS011;34586;53.616;10.032;2023-04-15T04:41:25;24.73;;;18.97;;
10872;SDS011;34586;53.616;10.032;2023-04-15T04:43:51;26.43;;;20.13;;
10872;SDS011;34586;53.616;10.032;2023-04-15T04:46:16;27.43;;;20.73;;
10872;SDS011;34586;53.616;10.032;2023-04-15T04:48:42;27.60;;;20.97;;
10872;SDS011;34586;53.616;10.032;2023-04-15T04:51:08;27.23;;;20.33;;
10872;SDS011;34586;53.616;10.032;2023-04-15T04:53:34;31.07;;;23.27;;
10872;SDS011;34586;53.616;10.032;2023-04-15T04:56:01;28.80;;;22.13;;
10872;SDS011;34586;53.616;10.032;2023-04-15T04:58:27;34.73;;;24.27;;
10872;SDS011;34586;53.616;10.032;2023-04-15T05:00:53;37.73;;;26.10;;
10872;SDS011;34586;53.616;10.032;2023-04-15T05:03:19;32.93;;;24.00;;
10872;SDS011;34586;53.616;10.032;2023-04-15T05:05:45;39.00;;;26.57;;
10872;SDS011;34586;53.616;10.032;2023-04-15T05:08:13;34.27;;;24.27;;
10872;SDS011;34586;53.616;10.032;2023-04-15T05:10:39;38.17;;;26.10;;
10872;SDS011;34586;53.616;10.032;2023-04-15T05:13:05;37.83;;;26.63;;
10872;SDS011;34586;53.616;10.032;2023-04-15T05:15:30;38.30;;;27.50;;
10872;SDS011;34586;53.616;10.032;2023-04-15T05:17:57;36.50;;;26.10;;
10872;SDS011;34586;53.616;10.032;2023-04-15T05:20:22;40.50;;;27.97;;
10872;SDS011;34586;53.616;10.032;2023-04-15T05:22:48;40.23;;;27.73;;
10872;SDS011;34586;53.616;10.032;2023-04-15T05:25:13;38.13;;;26.97;;
10872;SDS011;34586;53.616;10.032;2023-04-15T05:27:40;37.77;;;27.50;;
10872;SDS011;34586;53.616;10.032;2023-04-15T05:30:06;38.47;;;26.57;;
10872;SDS011;34586;53.616;10.032;2023-04-15T05:32:32;34.57;;;26.30;;
10872;SDS011;34586;53.616;10.032;2023-04-15T05:34:58;37.93;;;27.70;;
10872;SDS011;34586;53.616;10.032;2023-04-15T05:37:24;35.50;;;26.13;;
10872;SDS011;34586;53.616;10.032;2023-04-15T05:39:49;38.17;;;26.50;;
10872;SDS011;34586;53.616;10.032;2023-04-15T05:42:15;39.67;;;29.17;;
10872;SDS011;34586;53.616;10.032;2023-04-15T05:44:40;41.10;;;28.90;;
10872;SDS011;34586;53.616;10.032;2023-04-15T05:47:06;38.70;;;27.90;;
10872;SDS011;34586;53.616;10.032;2023-04-15T05:49:33;35.93;;;26.63;;
10872;SDS011;34586;53.616;10.032;2023-04-15T05:51:59;37.03;;;27.47;;
10872;SDS011;34586;53.616;10.032;2023-04-15T05:54:25;37.93;;;27.27;;
10872;SDS011;34586;53.616;10.032;2023-04-15T05:56:51;39.60;;;27.20;;
10872;SDS011;34586;53.616;10.032;2023-04-15T05:59:17;39.27;;;28.23;;
10872;SDS011;34586;53.616;10.032;2023-04-15T06:01:43;36.93;;;27.07;;
10872;SDS011;34586;53.616;10.032;2023-04-15T06:04:09;36.57;;;26.73;;
10872;SDS011;34586;53.616;10.032;2023-04-15T06:06:35;37.60;;;26.63;;
10872;SDS011;34586;53.616;10.032;2023-04-15T06:09:02;33.80;;;25.57;;
10872;SDS011;34586;53.616;10.032;2023-04-15T06:11:28;35.83;;;26.50;;
10872;SDS011;34586;53.616;10.032;2023-04-15T06:13:53;35.57;;;26.70;;
10872;SDS011;34586;53.616;10.032;2023-04-15T06:16:19;40.40;;;28.67;;
10872;SDS011;34586;53.616;10.032;2023-04-15T06:18:45;41.23;;;29.27;;
10872;SDS011;34586;53.616;10.032;2023-04-15T06:21:10;43.27;;;29.07;;
10872;SDS011;34586;53.616;10.032;2023-04-15T06:23:36;39.63;;;28.60;;
10872;SDS011;34586;53.616;10.032;2023-04-15T06:26:02;40.03;;;29.20;;
10872;SDS011;34586;53.616;10.032;2023-04-15T06:28:28;39.93;;;29.40;;
10872;SDS011;34586;53.616;10.032;2023-04-15T06:30:54;38.30;;;29.40;;
10872;SDS011;34586;53.616;10.032;2023-04-15T06:33:20;40.40;;;29.83;;
10872;SDS011;34586;53.616;10.032;2023-04-15T06:35:46;41.17;;;30.03;;
10872;SDS011;34586;53.616;10.032;2023-04-15T06:38:13;42.90;;;31.70;;
10872;SDS011;34586;53.616;10.032;2023-04-15T06:40:39;45.17;;;32.20;;
10872;SDS011;34586;53.616;10.032;2023-04-15T06:43:05;42.63;;;32.40;;
10872;SDS011;34586;53.616;10.032;2023-04-15T06:45:30;44.53;;;33.03;;
10872;SDS011;34586;53.616;10.032;2023-04-15T06:47:56;43.30;;;31.53;;
10872;SDS011;34586;53.616;10.032;2023-04-15T06:50:22;40.67;;;31.07;;
10872;SDS011;34586;53.616;10.032;2023-04-15T06:52:48;41.30;;;30.80;;
10872;SDS011;34586;53.616;10.032;2023-04-15T06:55:13;40.70;;;30.93;;
10872;SDS011;34586;53.616;10.032;2023-04-15T06:57:39;38.97;;;30.70;;
10872;SDS011;34586;53.616;10.032;2023-04-15T07:00:05;44.03;;;31.77;;
10872;SDS011;34586;53.616;10.032;2023-04-15T07:02:31;39.83;;;31.03;;
10872;SDS011;34586;53.616;10.032;2023-04-15T07:04:57;42.63;;;32.20;;
10872;SDS011;34586;53.616;10.032;2023-04-15T07:07:23;46.27;;;33.20;;
10872;SDS011;34586;53.616;10.032;2023-04-15T07:09:49;48.93;;;34.70;;
10872;SDS011;34586;53.616;10.032;2023-04-15T07:12:17;47.73;;;34.90;;
10872;SDS011;34586;53.616;10.032;2023-04-15T07:14:43;47.23;;;33.53;;
10872;SDS011;34586;53.616;10.032;2023-04-15T07:17:09;48.83;;;35.17;;
10872;SDS011;34586;53.616;10.032;2023-04-15T07:19:35;50.47;;;35.07;;
10872;SDS011;34586;53.616;10.032;2023-04-15T07:22:01;49.57;;;34.90;;
10872;SDS011;34586;53.616;10.032;2023-04-15T07:24:26;53.97;;;35.93;;
10872;SDS011;34586;53.616;10.032;2023-04-15T07:26:54;48.63;;;36.80;;
10872;SDS011;34586;53.616;10.032;2023-04-15T07:29:22;53.63;;;35.70;;
10872;SDS011;34586;53.616;10.032;2023-04-15T07:31:47;49.77;;;34.30;;
10872;SDS011;34586;53.616;10.032;2023-04-15T07:34:13;47.93;;;34.87;;
10872;SDS011;34586;53.616;10.032;2023-04-15T07:36:39;46.67;;;33.63;;
10872;SDS011;34586;53.616;10.032;2023-04-15T07:39:05;48.83;;;35.13;;
10872;SDS011;34586;53.616;10.032;2023-04-15T07:41:30;50.10;;;35.57;;
10872;SDS011;34586;53.616;10.032;2023-04-15T07:43:56;46.37;;;35.20;;
10872;SDS011;34586;53.616;10.032;2023-04-15T07:46:21;51.10;;;35.83;;
10872;SDS011;34586;53.616;10.032;2023-04-15T07:48:48;49.00;;;34.83;;
10872;SDS011;34586;53.616;10.032;2023-04-15T07:51:14;47.03;;;34.73;;
10872;SDS011;34586;53.616;10.032;2023-04-15T07:53:41;47.87;;;35.53;;
10872;SDS011;34586;53.616;10.032;2023-04-15T07:56:08;49.40;;;35.13;;
10872;SDS011;34586;53.616;10.032;2023-04-15T07:58:34;48.47;;;34.53;;
10872;SDS011;34586;53.616;10.032;2023-04-15T08:01:00;51.10;;;34.53;;
10872;SDS011;34586;53.616;10.032;2023-04-15T08:03:25;50.40;;;36.03;;
10872;SDS011;34586;53.616;10.032;2023-04-15T08:05:51;50.80;;;34.17;;
10872;SDS011;34586;53.616;10.032;2023-04-15T08:08:18;50.87;;;34.83;;
10872;SDS011;34586;53.616;10.032;2023-04-15T08:10:43;47.83;;;35.83;;
10872;SDS011;34586;53.616;10.032;2023-04-15T08:13:09;45.20;;;34.17;;
10872;SDS011;34586;53.616;10.032;2023-04-15T08:15:35;47.80;;;34.33;;
10872;SDS011;34586;53.616;10.032;2023-04-15T08:18:01;47.27;;;34.67;;
10872;SDS011;34586;53.616;10.032;2023-04-15T08:20:27;47.63;;;33.73;;
10872;SDS011;34586;53.616;10.032;2023-04-15T08:22:53;47.77;;;35.10;;
10872;SDS011;34586;53.616;10.032;2023-04-15T08:25:19;46.87;;;35.03;;
10872;SDS011;34586;53.616;10.032;2023-04-15T08:27:45;44.57;;;32.50;;
10872;SDS011;34586;53.616;10.032;2023-04-15T08:30:12;42.90;;;32.33;;
10872;SDS011;34586;53.616;10.032;2023-04-15T08:32:38;48.70;;;32.30;;
10872;SDS011;34586;53.616;10.032;2023-04-15T08:35:04;42.30;;;31.63;;
10872;SDS011;34586;53.616;10.032;2023-04-15T08:37:30;43.60;;;31.77;;
10872;SDS011;34586;53.616;10.032;2023-04-15T08:39:56;45.57;;;32.30;;
10872;SDS011;34586;53.616;10.032;2023-04-15T08:42:31;47.10;;;32.53;;
10872;SDS011;34586;53.616;10.032;2023-04-15T08:45:01;41.40;;;32.43;;
10872;SDS011;34586;53.616;10.032;2023-04-15T08:47:29;42.33;;;32.10;;
10872;SDS011;34586;53.616;10.032;2023-04-15T08:49:58;41.43;;;32.23;;
10872;SDS011;34586;53.616;10.032;2023-04-15T08:52:29;39.03;;;29.30;;
10872;SDS011;34586;53.616;10.032;2023-04-15T08:54:56;41.77;;;32.33;;
10872;SDS011;34586;53.616;10.032;2023-04-15T08:57:25;41.00;;;31.00;;
10872;SDS011;34586;53.616;10.032;2023-04-15T08:59:51;42.67;;;31.87;;
10872;SDS011;34586;53.616;10.032;2023-04-15T09:02:18;38.57;;;31.70;;
10872;SDS011;34586;53.616;10.032;2023-04-15T09:04:45;40.73;;;30.70;;
10872;SDS011;34586;53.616;10.032;2023-04-15T09:07:10;40.30;;;31.83;;
10872;SDS011;34586;53.616;10.032;2023-04-15T09:09:36;38.67;;;30.73;;
10872;SDS011;34586;53.616;10.032;2023-04-15T09:12:04;39.03;;;31.20;;
10872;SDS011;34586;53.616;10.032;2023-04-15T09:14:29;39.67;;;31.27;;
10872;SDS011;34586;53.616;10.032;2023-04-15T09:19:26;43.50;;;30.83;;
10872;SDS011;34586;53.616;10.032;2023-04-15T09:21:56;39.90;;;30.93;;
10872;SDS011;34586;53.616;10.032;2023-04-15T09:24:23;43.37;;;32.33;;
10872;SDS011;34586;53.616;10.032;2023-04-15T09:26:53;37.00;;;29.40;;
10872;SDS011;34586;53.616;10.032;2023-04-15T09:29:23;36.00;;;29.07;;
10872;SDS011;34586;53.616;10.032;2023-04-15T09:31:50;38.00;;;29.07;;
10872;SDS011;34586;53.616;10.032;2023-04-15T09:34:16;35.37;;;27.57;;
10872;SDS011;34586;53.616;10.032;2023-04-15T09:36:55;33.63;;;27.80;;
10872;SDS011;34586;53.616;10.032;2023-04-15T09:39:21;34.77;;;28.47;;
10872;SDS011;34586;53.616;10.032;2023-04-15T09:42:02;35.20;;;27.80;;
10872;SDS011;34586;53.616;10.032;2023-04-15T09:44:29;31.73;;;26.50;;
10872;SDS011;34586;53.616;10.032;2023-04-15T09:46:55;32.63;;;25.57;;
10872;SDS011;34586;53.616;10.032;2023-04-15T09:49:21;32.07;;;25.00;;
10872;SDS011;34586;53.616;10.032;2023-04-15T09:51:47;32.00;;;24.23;;
10872;SDS011;34586;53.616;10.032;2023-04-15T09:54:17;32.50;;;25.87;;
10872;SDS011;34586;53.616;10.032;2023-04-15T09:56:45;27.87;;;24.30;;
10872;SDS011;34586;53.616;10.032;2023-04-15T09:59:11;30.47;;;24.87;;
10872;SDS011;34586;53.616;10.032;2023-04-15T10:01:36;32.13;;;25.13;;
10872;SDS011;34586;53.616;10.032;2023-04-15T10:04:05;30.23;;;24.30;;
10872;SDS011;34586;53.616;10.032;2023-04-15T10:06:32;28.23;;;24.03;;
10872;SDS011;34586;53.616;10.032;2023-04-15T10:08:58;30.53;;;24.10;;
10872;SDS011;34586;53.616;10.032;2023-04-15T10:11:27;29.23;;;23.00;;
10872;SDS011;34586;53.616;10.032;2023-04-15T10:13:53;30.00;;;22.73;;
10872;SDS011;34586;53.616;10.032;2023-04-15T10:16:25;25.80;;;21.90;;
10872;SDS011;34586;53.616;10.032;2023-04-15T10:18:56;22.43;;;19.73;;
10872;SDS011;34586;53.616;10.032;2023-04-15T10:21:25;25.00;;;20.03;;
10872;SDS011;34586;53.616;10.032;2023-04-15T10:23:53;23.53;;;19.03;;
10872;SDS011;34586;53.616;10.032;2023-04-15T10:26:19;24.10;;;19.27;;
10872;SDS011;34586;53.616;10.032;2023-04-15T10:28:46;25.20;;;19.53;;
10872;SDS011;34586;53.616;10.032;2023-04-15T10:31:12;19.77;;;17.67;;
10872;SDS011;34586;53.616;10.032;2023-04-15T10:33:42;17.93;;;16.10;;
10872;SDS011;34586;53.616;10.032;2023-04-15T10:36:09;21.83;;;17.27;;
10872;SDS011;34586;53.616;10.032;2023-04-15T10:38:43;19.33;;;16.50;;
10872;SDS011;34586;53.616;10.032;2023-04-15T10:41:26;20.03;;;16.93;;
10872;SDS011;34586;53.616;10.032;2023-04-15T10:46:43;19.37;;;16.93;;
10872;SDS011;34586;53.616;10.032;2023-04-15T10:49:13;17.87;;;15.10;;
10872;SDS011;34586;53.616;10.032;2023-04-15T10:51:52;16.60;;;14.60;;
10872;SDS011;34586;53.616;10.032;2023-04-15T10:56:51;16.50;;;12.87;;
10872;SDS011;34586;53.616;10.032;2023-04-15T10:59:31;16.50;;;12.90;;
10872;SDS011;34586;53.616;10.032;2023-04-15T11:02:05;12.53;;;11.23;;
10872;SDS011;34586;53.616;10.032;2023-04-15T11:07:38;14.83;;;11.03;;
10872;SDS011;34586;53.616;10.032;2023-04-15T11:12:41;11.10;;;9.40;;
10872;SDS011;34586;53.616;10.032;2023-04-15T11:17:51;11.37;;;9.50;;
10872;SDS011;34586;53.616;10.032;2023-04-15T11:20:17;9.73;;;8.73;;
10872;SDS011;34586;53.616;10.032;2023-04-15T11:22:47;10.73;;;9.13;;
10872;SDS011;34586;53.616;10.032;2023-04-15T11:27:49;10.47;;;9.40;;
10872;SDS011;34586;53.616;10.032;2023-04-15T11:30:17;12.03;;;9.90;;
10872;SDS011;34586;53.616;10.032;2023-04-15T11:32:45;10.83;;;9.30;;
10872;SDS011;34586;53.616;10.032;2023-04-15T11:35:11;11.73;;;9.40;;
10872;SDS011;34586;53.616;10.032;2023-04-15T11:37:36;9.90;;;8.80;;
10872;SDS011;34586;53.616;10.032;2023-04-15T11:40:02;11.80;;;7.97;;
10872;SDS011;34586;53.616;10.032;2023-04-15T11:42:29;9.03;;;8.13;;
10872;SDS011;34586;53.616;10.032;2023-04-15T11:45:05;9.23;;;8.10;;
10872;SDS011;34586;53.616;10.032;2023-04-15T11:47:38;8.90;;;8.10;;
10872;SDS011;34586;53.616;10.032;2023-04-15T11:50:17;8.33;;;7.40;;
10872;SDS011;34586;53.616;10.032;2023-04-15T11:52:58;9.27;;;7.70;;
10872;SDS011;34586;53.616;10.032;2023-04-15T11:55:25;10.57;;;7.83;;
10872;SDS011;34586;53.616;10.032;2023-04-15T12:00:46;8.50;;;7.73;;
10872;SDS011;34586;53.616;10.032;2023-04-15T12:13:52;10.03;;;9.03;;
10872;SDS011;34586;53.616;10.032;2023-04-15T12:16:20;11.40;;;9.77;;
10872;SDS011;34586;53.616;10.032;2023-04-15T12:18:47;10.27;;;8.87;;
10872;SDS011;34586;53.616;10.032;2023-04-15T12:21:18;9.90;;;8.97;;
10872;SDS011;34586;53.616;10.032;2023-04-15T12:23:52;9.43;;;8.57;;
10872;SDS011;34586;53.616;10.032;2023-04-15T12:26:26;9.63;;;8.70;;
10872;SDS011;34586;53.616;10.032;2023-04-15T12:28:59;11.53;;;9.40;;
10872;SDS011;34586;53.616;10.032;2023-04-15T12:31:25;9.63;;;8.40;;
10872;SDS011;34586;53.616;10.032;2023-04-15T12:33:51;10.33;;;9.30;;
10872;SDS011;34586;53.616;10.032;2023-04-15T12:36:19;12.07;;;9.23;;
10872;SDS011;34586;53.616;10.032;2023-04-15T12:38:45;9.53;;;8.53;;
10872;SDS011;34586;53.616;10.032;2023-04-15T12:41:10;10.27;;;9.17;;
10872;SDS011;34586;53.616;10.032;2023-04-15T12:43:36;10.67;;;8.83;;
10872;SDS011;34586;53.616;10.032;2023-04-15T12:46:02;9.13;;;8.10;;
10872;SDS011;34586;53.616;10.032;2023-04-15T12:48:28;10.00;;;8.73;;
10872;SDS011;34586;53.616;10.032;2023-04-15T12:50:54;10.60;;;8.00;;
10872;SDS011;34586;53.616;10.032;2023-04-15T12:53:20;10.10;;;9.10;;
10872;SDS011;34586;53.616;10.032;2023-04-15T12:55:46;10.33;;;8.87;;
10872;SDS011;34586;53.616;10.032;2023-04-15T12:58:12;9.70;;;8.63;;
10872;SDS011;34586;53.616;10.032;2023-04-15T13:00:37;10.50;;;9.00;;
10872;SDS011;34586;53.616;10.032;2023-04-15T13:03:03;10.33;;;9.07;;
10872;SDS011;34586;53.616;10.032;2023-04-15T13:05:29;10.93;;;9.30;;
10872;SDS011;34586;53.616;10.032;2023-04-15T13:07:55;10.13;;;9.13;;
10872;SDS011;34586;53.616;10.032;2023-04-15T13:10:20;9.50;;;8.60;;
10872;SDS011;34586;53.616;10.032;2023-04-15T13:12:47;9.70;;;8.80;;
10872;SDS011;34586;53.616;10.032;2023-04-15T13:15:14;9.37;;;8.20;;
10872;SDS011;34586;53.616;10.032;2023-04-15T13:17:43;9.23;;;8.27;;
10872;SDS011;34586;53.616;10.032;2023-04-15T13:20:09;8.83;;;7.40;;
10872;SDS011;34586;53.616;10.032;2023-04-15T13:22:34;8.67;;;7.87;;
10872;SDS011;34586;53.616;10.032;2023-04-15T13:25:00;8.27;;;7.43;;
10872;SDS011;34586;53.616;10.032;2023-04-15T13:27:26;8.97;;;8.03;;
10872;SDS011;34586;53.616;10.032;2023-04-15T13:29:51;8.50;;;7.60;;
10872;SDS011;34586;53.616;10.032;2023-04-15T13:32:18;8.83;;;7.93;;
10872;SDS011;34586;53.616;10.032;2023-04-15T13:34:43;8.70;;;7.90;;
10872;SDS011;34586;53.616;10.032;2023-04-15T13:37:09;10.03;;;8.40;;
10872;SDS011;34586;53.616;10.032;2023-04-15T13:39:35;8.40;;;7.53;;
10872;SDS011;34586;53.616;10.032;2023-04-15T13:42:00;8.27;;;7.40;;
10872;SDS011;34586;53.616;10.032;2023-04-15T13:44:27;11.30;;;7.40;;
10872;SDS011;34586;53.616;10.032;2023-04-15T13:46:52;7.57;;;6.53;;
10872;SDS011;34586;53.616;10.032;2023-04-15T13:49:18;7.13;;;6.30;;
10872;SDS011;34586;53.616;10.032;2023-04-15T13:51:44;6.90;;;6.20;;
10872;SDS011;34586;53.616;10.032;2023-04-15T13:54:09;6.97;;;6.27;;
10872;SDS011;34586;53.616;10.032;2023-04-15T13:56:35;6.30;;;5.63;;
10872;SDS011;34586;53.616;10.032;2023-04-15T13:59:00;6.13;;;5.63;;
10872;SDS011;34586;53.616;10.032;2023-04-15T14:01:27;6.83;;;5.67;;
10872;SDS011;34586;53.616;10.032;2023-04-15T14:03:53;6.53;;;5.77;;
10872;SDS011;34586;53.616;10.032;2023-04-15T14:06:19;7.00;;;6.40;;
10872;SDS011;34586;53.616;10.032;2023-04-15T14:08:45;6.10;;;5.50;;
10872;SDS011;34586;53.616;10.032;2023-04-15T14:11:11;6.17;;;5.50;;
10872;SDS011;34586;53.616;10.032;2023-04-15T14:13:36;6.57;;;5.97;;
10872;SDS011;34586;53.616;10.032;2023-04-15T14:16:02;6.63;;;6.10;;
10872;SDS011;34586;53.616;10.032;2023-04-15T14:18:28;6.47;;;5.97;;
10872;SDS011;34586;53.616;10.032;2023-04-15T14:20:54;6.90;;;6.30;;
10872;SDS011;34586;53.616;10.032;2023-04-15T14:23:20;8.47;;;6.20;;
10872;SDS011;34586;53.616;10.032;2023-04-15T14:25:46;7.50;;;6.77;;
10872;SDS011;34586;53.616;10.032;2023-04-15T14:28:12;7.37;;;6.33;;
10872;SDS011;34586;53.616;10.032;2023-04-15T14:30:38;6.90;;;6.30;;
10872;SDS011;34586;53.616;10.032;2023-04-15T14:33:03;6.93;;;6.40;;
10872;SDS011;34586;53.616;10.032;2023-04-15T14:35:29;7.37;;;6.67;;
10872;SDS011;34586;53.616;10.032;2023-04-15T14:37:55;6.87;;;6.20;;
10872;SDS011;34586;53.616;10.032;2023-04-15T14:40:21;7.37;;;6.73;;
10872;SDS011;34586;53.616;10.032;2023-04-15T14:42:47;6.50;;;5.90;;
10872;SDS011;34586;53.616;10.032;2023-04-15T14:45:13;7.03;;;6.43;;
10872;SDS011;34586;53.616;10.032;2023-04-15T14:47:38;7.80;;;6.63;;